Time;durP1;ratioP1;P1;durP2;ratioP2;P2;SDS_P1;SDS_P2;PMS_P1;PMS_P2;Temp;Humidity;BMP_temperature;BMP_pressure;BME280_temperature;BME280_humidity;BME280_pressure;Samples;Min_cycle;Max_cycle;Signal;HPM_P1;HPM_P2
2022/08/26 00:00:28;;;;;;;31.20;9.63;;;;;;;;;;1028291;28;20042;-76
2022/08/26 00:00:59;;;;;;;27.80;8.68;;;;;;;;;;1028347;28;20018;-76
2022/08/26 00:01:30;;;;;;;18.90;7.90;;;;;;;;;;1028199;28;20034;-76
2022/08/26 00:02:01;;;;;;;28.88;7.72;;;;;;;;;;1028241;28;20054;-76
2022/08/26 00:02:31;;;;;;;23.60;9.30;;;;;;;;;;1028334;28;20041;-76
2022/08/26 00:03:02;;;;;;;19.92;9.10;;;;;;;;;;1028249;28;20034;-76
2022/08/26 00:03:34;;;;;;;21.27;8.85;;;;;;;;;;1028290;28;20554;-76
2022/08/26 00:04:04;;;;;;;23.73;8.00;;;;;;;;;;1027821;28;20026;-76
2022/08/26 00:04:35;;;;;;;28.15;9.15;;;;;;;;;;1027911;28;20558;-76
2022/08/26 00:05:06;;;;;;;22.50;9.32;;;;;;;;;;1027892;28;20023;-76
2022/08/26 00:05:38;;;;;;;20.70;8.88;;;;;;;;;;1028058;28;20391;-75
2022/08/26 00:06:08;;;;;;;24.33;8.43;;;;;;;;;;1023698;29;20511;-75
2022/08/26 00:06:39;;;;;;;22.48;9.52;;;;;;;;;;1024092;29;20031;-76
2022/08/26 00:07:10;;;;;;;26.90;8.88;;;;;;;;;;1024252;28;20597;-75
2022/08/26 00:07:41;;;;;;;34.90;9.45;;;;;;;;;;1028056;28;20032;-75
2022/08/26 00:08:12;;;;;;;26.02;10.35;;;;;;;;;;1028279;28;20030;-75
2022/08/26 00:08:43;;;;;;;21.48;8.18;;;;;;;;;;1028360;28;20079;-75
2022/08/26 00:09:14;;;;;;;17.55;8.35;;;;;;;;;;1028191;28;20510;-75
2022/08/26 00:09:44;;;;;;;30.33;9.25;;;;;;;;;;1028388;28;20015;-76
2022/08/26 00:10:15;;;;;;;18.17;7.82;;;;;;;;;;1028208;28;20027;-75
2022/08/26 00:10:46;;;;;;;14.35;7.28;;;;;;;;;;1028485;28;20031;-75
2022/08/26 00:11:16;;;;;;;22.10;7.95;;;;;;;;;;1028154;28;20026;-75
2022/08/26 00:11:47;;;;;;;27.23;8.05;;;;;;;;;;1028303;28;20038;-75
2022/08/26 00:12:17;;;;;;;15.77;7.50;;;;;;;;;;1028224;28;20058;-75
2022/08/26 00:12:48;;;;;;;32.63;8.32;;;;;;;;;;1028397;28;20030;-75
2022/08/26 00:13:19;;;;;;;25.42;8.93;;;;;;;;;;1028209;28;20080;-75
2022/08/26 00:13:49;;;;;;;22.33;8.73;;;;;;;;;;1028152;28;20121;-75
2022/08/26 00:14:20;;;;;;;26.02;7.78;;;;;;;;;;1027936;28;20069;-75
2022/08/26 00:14:51;;;;;;;19.38;7.20;;;;;;;;;;1028133;28;20434;-76
2022/08/26 00:15:22;;;;;;;23.65;8.85;;;;;;;;;;1028012;28;20093;-75
2022/08/26 00:15:53;;;;;;;30.55;7.70;;;;;;;;;;1028122;28;20126;-75
2022/08/26 00:16:24;;;;;;;42.42;9.68;;;;;;;;;;1027916;28;20050;-76
2022/08/26 00:16:55;;;;;;;19.67;8.48;;;;;;;;;;1028204;28;20030;-76
2022/08/26 00:17:26;;;;;;;28.15;6.38;;;;;;;;;;1027911;28;20050;-75
2022/08/26 00:17:57;;;;;;;31.70;7.50;;;;;;;;;;1028115;28;20031;-75
2022/08/26 00:18:28;;;;;;;23.38;8.00;;;;;;;;;;1028239;28;20475;-76
2022/08/26 00:18:59;;;;;;;24.33;7.15;;;;;;;;;;1028153;28;20086;-76
2022/08/26 00:19:29;;;;;;;21.23;7.60;;;;;;;;;;1027949;28;20023;-75
2022/08/26 00:20:00;;;;;;;20.48;6.68;;;;;;;;;;1028015;28;20023;-76
2022/08/26 00:20:31;;;;;;;25.77;8.10;;;;;;;;;;1028028;28;20084;-75
2022/08/26 00:21:02;;;;;;;18.10;7.68;;;;;;;;;;1028070;28;20066;-75
2022/08/26 00:21:33;;;;;;;30.20;7.90;;;;;;;;;;1028281;28;20027;-75
2022/08/26 00:22:04;;;;;;;14.95;7.65;;;;;;;;;;1028186;28;20073;-75
2022/08/26 00:22:34;;;;;;;23.63;8.15;;;;;;;;;;1028430;28;20048;-75
2022/08/26 00:23:05;;;;;;;26.05;8.68;;;;;;;;;;1028168;28;20034;-75
2022/08/26 00:23:36;;;;;;;22.42;8.07;;;;;;;;;;1028009;28;20031;-75
2022/08/26 00:24:06;;;;;;;26.10;8.65;;;;;;;;;;1027847;28;20019;-75
2022/08/26 00:24:37;;;;;;;30.38;7.45;;;;;;;;;;1027964;28;20038;-76
2022/08/26 00:25:08;;;;;;;21.92;9.43;;;;;;;;;;1027937;28;20030;-75
2022/08/26 00:25:39;;;;;;;22.52;7.50;;;;;;;;;;1032023;28;20034;-75
2022/08/26 00:26:09;;;;;;;19.35;8.35;;;;;;;;;;1031593;28;20127;-76
2022/08/26 00:26:40;;;;;;;24.63;7.68;;;;;;;;;;1027891;28;20475;-75
2022/08/26 00:27:10;;;;;;;23.10;8.43;;;;;;;;;;1027672;28;20161;-75
2022/08/26 00:27:42;;;;;;;23.33;8.48;;;;;;;;;;1027815;28;20063;-75
2022/08/26 00:28:13;;;;;;;27.05;8.13;;;;;;;;;;1027691;28;20034;-76
2022/08/26 00:28:44;;;;;;;21.02;8.38;;;;;;;;;;1027837;28;20403;-75
2022/08/26 00:29:15;;;;;;;16.33;6.75;;;;;;;;;;1027845;28;20113;-75
2022/08/26 00:29:45;;;;;;;27.92;7.20;;;;;;;;;;1028126;28;20026;-75
2022/08/26 00:30:18;;;;;;;28.23;9.15;;;;;;;;;;1027728;28;20033;-76
2022/08/26 00:30:49;;;;;;;19.15;8.00;;;;;;;;;;1028277;28;20468;-76
2022/08/26 00:31:19;;;;;;;15.93;6.88;;;;;;;;;;1028182;28;20035;-75
2022/08/26 00:31:51;;;;;;;18.48;7.15;;;;;;;;;;1028273;28;20074;-75
2022/08/26 00:32:21;;;;;;;21.67;6.85;;;;;;;;;;1028089;28;20031;-75
2022/08/26 00:32:52;;;;;;;29.00;7.82;;;;;;;;;;1029317;28;20463;-76
2022/08/26 00:33:22;;;;;;;24.05;7.20;;;;;;;;;;1028825;28;20054;-76
2022/08/26 00:33:54;;;;;;;20.00;7.50;;;;;;;;;;1028275;28;20030;-76
2022/08/26 00:34:24;;;;;;;21.15;6.80;;;;;;;;;;1027735;28;20031;-76
2022/08/26 00:34:55;;;;;;;21.88;7.75;;;;;;;;;;1028209;28;20050;-76
2022/08/26 00:35:26;;;;;;;30.27;8.02;;;;;;;;;;1028044;28;20077;-76
2022/08/26 00:35:57;;;;;;;23.70;7.32;;;;;;;;;;1028185;28;20027;-76
2022/08/26 00:36:27;;;;;;;16.42;7.72;;;;;;;;;;1028114;28;20062;-76
2022/08/26 00:36:58;;;;;;;23.95;8.32;;;;;;;;;;1028153;28;20121;-76
2022/08/26 00:37:29;;;;;;;17.20;5.13;;;;;;;;;;1028128;28;20027;-76
2022/08/26 00:38:00;;;;;;;18.63;6.25;;;;;;;;;;1028171;28;20037;-76
2022/08/26 00:38:31;;;;;;;21.25;5.90;;;;;;;;;;1027765;28;20030;-76
2022/08/26 00:39:02;;;;;;;23.88;6.97;;;;;;;;;;1027792;28;20027;-76
2022/08/26 00:39:33;;;;;;;26.52;7.60;;;;;;;;;;1027895;28;20396;-76
2022/08/26 00:40:04;;;;;;;17.50;6.75;;;;;;;;;;1027795;28;20114;-76
2022/08/26 00:40:37;;;;;;;18.30;7.78;;;;;;;;;;1027746;28;20092;-76
2022/08/26 00:41:08;;;;;;;21.00;7.53;;;;;;;;;;1027772;28;20026;-75
2022/08/26 00:41:39;;;;;;;16.33;5.65;;;;;;;;;;1027941;28;20027;-76
2022/08/26 00:42:10;;;;;;;32.00;8.10;;;;;;;;;;1027679;28;20035;-75
2022/08/26 00:42:41;;;;;;;26.75;7.20;;;;;;;;;;1028199;28;20476;-75
2022/08/26 00:43:11;;;;;;;25.27;5.93;;;;;;;;;;1028040;28;20034;-76
2022/08/26 00:43:42;;;;;;;29.77;7.15;;;;;;;;;;1028206;28;20030;-76
2022/08/26 00:44:13;;;;;;;25.55;6.88;;;;;;;;;;1027618;28;20439;-76
2022/08/26 00:44:43;;;;;;;21.77;6.30;;;;;;;;;;1027917;28;20027;-76
2022/08/26 00:45:15;;;;;;;27.10;8.05;;;;;;;;;;1027667;28;20418;-76
2022/08/26 00:46:18;;;;;;;18.90;6.47;;;;;;;;;;1027957;28;20418;-76
2022/08/26 00:46:51;;;;;;;16.58;5.90;;;;;;;;;;1023695;29;20050;-76
2022/08/26 00:47:34;;;;;;;25.13;7.05;;;;;;;;;;1023427;29;20019;-76
2022/08/26 00:48:05;;;;;;;16.58;6.88;;;;;;;;;;1027396;28;20038;-76
2022/08/26 00:48:36;;;;;;;22.77;6.90;;;;;;;;;;1028147;28;20038;-76
2022/08/26 00:49:11;;;;;;;21.30;7.15;;;;;;;;;;1027576;28;20110;-75
2022/08/26 00:49:43;;;;;;;30.63;8.00;;;;;;;;;;1027837;28;20399;-76
2022/08/26 00:50:17;;;;;;;23.67;8.38;;;;;;;;;;1025738;28;20033;-76
2022/08/26 00:50:55;;;;;;;27.20;6.60;;;;;;;;;;1023894;29;20110;-76
2022/08/26 00:51:26;;;;;;;24.80;6.85;;;;;;;;;;1023128;29;20027;-76
2022/08/26 00:51:59;;;;;;;16.38;5.95;;;;;;;;;;1023681;28;20075;-76
2022/08/26 00:52:30;;;;;;;16.80;6.22;;;;;;;;;;1019747;29;20083;-76
2022/08/26 00:53:02;;;;;;;25.15;6.15;;;;;;;;;;1016235;29;20082;-76
2022/08/26 00:53:34;;;;;;;16.00;5.25;;;;;;;;;;1019892;29;20055;-76
2022/08/26 00:54:08;;;;;;;16.33;5.47;;;;;;;;;;1020292;29;20074;-76
2022/08/26 00:54:44;;;;;;;17.48;4.82;;;;;;;;;;1023955;29;20074;-76
2022/08/26 00:55:28;;;;;;;8.57;3.65;;;;;;;;;;1024006;28;20476;-76
2022/08/26 00:56:02;;;;;;;11.23;4.05;;;;;;;;;;1024133;28;20560;-76
2022/08/26 00:56:35;;;;;;;18.60;6.10;;;;;;;;;;1024136;28;20454;-76
2022/08/26 00:57:07;;;;;;;12.32;4.15;;;;;;;;;;1023915;28;20031;-76
2022/08/26 00:57:38;;;;;;;11.13;3.95;;;;;;;;;;1024162;28;20026;-76
2022/08/26 00:58:09;;;;;;;19.17;3.85;;;;;;;;;;1023970;28;20471;-76
2022/08/26 00:58:41;;;;;;;26.45;4.57;;;;;;;;;;1024177;28;20037;-76
2022/08/26 00:59:13;;;;;;;13.15;4.32;;;;;;;;;;1024026;28;20031;-76
2022/08/26 00:59:45;;;;;;;11.55;4.18;;;;;;;;;;1025713;28;20133;-76
2022/08/26 01:00:18;;;;;;;14.50;4.13;;;;;;;;;;1027799;28;20030;-76
2022/08/26 01:00:49;;;;;;;11.27;3.50;;;;;;;;;;1027810;28;20037;-76
2022/08/26 01:01:20;;;;;;;15.10;4.00;;;;;;;;;;1027127;28;20567;-76
2022/08/26 01:01:51;;;;;;;11.82;4.10;;;;;;;;;;1027666;28;20027;-76
2022/08/26 01:02:22;;;;;;;6.47;3.17;;;;;;;;;;1027605;28;20019;-76
2022/08/26 01:02:54;;;;;;;11.57;3.88;;;;;;;;;;1027892;28;20391;-76
2022/08/26 01:03:26;;;;;;;11.73;3.60;;;;;;;;;;1027509;28;20058;-76
2022/08/26 01:03:57;;;;;;;11.95;3.95;;;;;;;;;;1028112;28;20085;-76
2022/08/26 01:04:29;;;;;;;17.38;3.20;;;;;;;;;;1028034;28;20023;-76
2022/08/26 01:05:01;;;;;;;18.05;4.50;;;;;;;;;;1027884;28;20097;-76
2022/08/26 01:05:32;;;;;;;9.35;3.13;;;;;;;;;;1027626;28;20553;-76
2022/08/26 01:06:03;;;;;;;16.13;3.72;;;;;;;;;;1023496;29;20118;-75
2022/08/26 01:06:34;;;;;;;9.00;2.63;;;;;;;;;;1027072;28;20038;-75
2022/08/26 01:07:05;;;;;;;15.05;4.65;;;;;;;;;;1027566;28;20121;-75
2022/08/26 01:07:35;;;;;;;15.32;3.40;;;;;;;;;;1027552;28;20055;-75
2022/08/26 01:08:06;;;;;;;13.73;3.45;;;;;;;;;;1023933;28;20117;-76
2022/08/26 01:08:37;;;;;;;13.80;3.20;;;;;;;;;;1023951;28;20027;-76
2022/08/26 01:09:07;;;;;;;16.38;4.32;;;;;;;;;;1027829;28;20042;-76
2022/08/26 01:09:38;;;;;;;9.40;3.95;;;;;;;;;;1028105;28;20026;-76
2022/08/26 01:10:10;;;;;;;19.33;4.75;;;;;;;;;;1027880;28;20501;-76
2022/08/26 01:10:41;;;;;;;24.15;3.50;;;;;;;;;;1027847;28;20033;-76
2022/08/26 01:11:12;;;;;;;6.97;3.72;;;;;;;;;;1027930;28;20031;-76
2022/08/26 01:11:43;;;;;;;8.38;3.72;;;;;;;;;;1027885;28;20041;-76
2022/08/26 01:12:13;;;;;;;21.00;5.35;;;;;;;;;;1027766;28;20118;-76
2022/08/26 01:12:46;;;;;;;30.67;5.25;;;;;;;;;;1027884;28;20022;-76
2022/08/26 01:13:18;;;;;;;35.47;4.57;;;;;;;;;;1027878;28;20368;-76
2022/08/26 01:13:51;;;;;;;12.35;3.97;;;;;;;;;;1027742;28;20026;-76
2022/08/26 01:14:21;;;;;;;10.45;3.47;;;;;;;;;;1024574;28;20037;-76
2022/08/26 01:14:52;;;;;;;21.92;3.95;;;;;;;;;;1023836;29;20031;-76
2022/08/26 01:15:24;;;;;;;13.18;3.28;;;;;;;;;;1026051;28;20023;-76
2022/08/26 01:15:58;;;;;;;11.23;4.00;;;;;;;;;;1027951;28;20081;-76
2022/08/26 01:16:29;;;;;;;12.65;3.03;;;;;;;;;;1027849;28;20082;-76
2022/08/26 01:17:01;;;;;;;26.45;2.92;;;;;;;;;;1027984;28;20439;-76
2022/08/26 01:17:32;;;;;;;16.35;3.92;;;;;;;;;;1028048;28;20081;-76
2022/08/26 01:18:04;;;;;;;10.70;3.25;;;;;;;;;;1027533;28;20168;-76
2022/08/26 01:18:34;;;;;;;8.52;3.50;;;;;;;;;;1027419;28;20030;-76
2022/08/26 01:19:12;;;;;;;20.35;3.53;;;;;;;;;;1027646;28;20081;-76
2022/08/26 01:19:45;;;;;;;9.95;2.80;;;;;;;;;;1027776;28;20463;-76
2022/08/26 01:20:34;;;;;;;11.93;4.20;;;;;;;;;;1027524;28;20472;-76
2022/08/26 01:21:13;;;;;;;9.65;3.53;;;;;;;;;;1027082;28;20360;-76
2022/08/26 01:21:47;;;;;;;16.52;4.18;;;;;;;;;;1026316;28;20369;-76
2022/08/26 01:22:24;;;;;;;16.17;5.00;;;;;;;;;;1025900;28;20031;-76
2022/08/26 01:22:54;;;;;;;11.50;3.65;;;;;;;;;;1026202;28;20039;-76
2022/08/26 01:23:27;;;;;;;17.63;4.40;;;;;;;;;;1025485;28;20474;-76
2022/08/26 01:23:58;;;;;;;12.40;3.70;;;;;;;;;;1027720;28;20023;-76
2022/08/26 01:24:29;;;;;;;12.43;4.90;;;;;;;;;;1026569;28;20026;-76
2022/08/26 01:25:01;;;;;;;11.85;3.42;;;;;;;;;;1027447;28;20061;-75
2022/08/26 01:25:33;;;;;;;22.17;4.18;;;;;;;;;;1025813;28;20030;-76
2022/08/26 01:26:07;;;;;;;8.95;3.42;;;;;;;;;;1025841;28;20033;-76
2022/08/26 01:26:40;;;;;;;9.93;3.33;;;;;;;;;;1026693;28;20014;-76
2022/08/26 01:27:12;;;;;;;6.68;3.42;;;;;;;;;;1026593;28;20029;-76
2022/08/26 01:27:42;;;;;;;13.48;4.13;;;;;;;;;;1027597;28;20030;-76
2022/08/26 01:28:15;;;;;;;10.02;4.13;;;;;;;;;;1026770;28;20061;-76
2022/08/26 01:28:47;;;;;;;12.52;3.28;;;;;;;;;;1026276;28;20057;-76
2022/08/26 01:29:18;;;;;;;8.10;2.53;;;;;;;;;;1024006;28;20027;-76
2022/08/26 01:29:49;;;;;;;5.40;3.20;;;;;;;;;;1027185;28;20129;-76
2022/08/26 01:30:20;;;;;;;13.35;3.63;;;;;;;;;;1026064;28;21449;-76
2022/08/26 01:30:52;;;;;;;17.73;2.97;;;;;;;;;;1027783;28;20578;-76
2022/08/26 01:31:24;;;;;;;8.63;2.78;;;;;;;;;;1026892;28;20590;-76
2022/08/26 01:31:55;;;;;;;19.30;3.88;;;;;;;;;;1027869;28;20109;-76
2022/08/26 01:32:27;;;;;;;8.77;3.63;;;;;;;;;;1026230;28;20032;-76
2022/08/26 01:32:59;;;;;;;10.65;4.03;;;;;;;;;;1026295;28;20037;-75
2022/08/26 01:33:45;;;;;;;11.07;4.00;;;;;;;;;;1027159;28;20035;-76
2022/08/26 01:34:21;;;;;;;6.75;2.53;;;;;;;;;;1026625;28;20030;-76
2022/08/26 01:34:52;;;;;;;14.50;3.65;;;;;;;;;;1026547;28;20637;-76
2022/08/26 01:35:22;;;;;;;14.73;4.32;;;;;;;;;;1027076;28;20082;-76
2022/08/26 01:35:53;;;;;;;20.58;3.83;;;;;;;;;;1028029;28;20034;-75
2022/08/26 01:36:24;;;;;;;10.60;3.35;;;;;;;;;;1026341;28;20058;-76
2022/08/26 01:37:01;;;;;;;10.77;3.72;;;;;;;;;;1028014;28;20105;-76
2022/08/26 01:37:34;;;;;;;16.88;3.20;;;;;;;;;;1027257;28;20045;-76
2022/08/26 01:38:05;;;;;;;7.85;3.58;;;;;;;;;;1025729;28;20061;-76
2022/08/26 01:38:35;;;;;;;18.38;5.00;;;;;;;;;;1026843;28;20027;-76
2022/08/26 01:39:06;;;;;;;11.52;4.07;;;;;;;;;;1027134;28;20034;-76
2022/08/26 01:39:38;;;;;;;10.15;3.75;;;;;;;;;;1027442;28;20058;-76
2022/08/26 01:40:12;;;;;;;11.25;4.15;;;;;;;;;;1026539;28;20089;-76
2022/08/26 01:40:44;;;;;;;18.90;5.20;;;;;;;;;;1027987;28;20026;-76
2022/08/26 01:41:15;;;;;;;12.70;3.20;;;;;;;;;;1026875;28;20038;-76
2022/08/26 01:41:46;;;;;;;11.68;3.75;;;;;;;;;;1028013;28;20117;-76
2022/08/26 01:42:17;;;;;;;17.20;3.35;;;;;;;;;;1026473;28;20119;-76
2022/08/26 01:42:48;;;;;;;10.43;3.17;;;;;;;;;;1026510;28;20046;-76
2022/08/26 01:43:21;;;;;;;7.45;3.35;;;;;;;;;;1022097;28;20031;-76
2022/08/26 01:43:53;;;;;;;22.65;3.17;;;;;;;;;;1024738;28;20110;-76
2022/08/26 01:44:25;;;;;;;5.88;2.97;;;;;;;;;;1023904;28;20138;-76
2022/08/26 01:45:17;;;;;;;10.05;3.55;;;;;;;;;;1024313;28;20028;-76
2022/08/26 01:45:48;;;;;;;7.88;3.17;;;;;;;;;;1025272;28;20026;-76
2022/08/26 01:46:21;;;;;;;9.30;3.33;;;;;;;;;;1026150;28;20039;-76
2022/08/26 01:46:52;;;;;;;10.55;2.70;;;;;;;;;;1027879;28;20042;-76
2022/08/26 01:47:24;;;;;;;6.95;2.53;;;;;;;;;;1026337;28;20656;-76
2022/08/26 01:47:56;;;;;;;20.20;2.72;;;;;;;;;;1028131;28;20026;-76
2022/08/26 01:48:29;;;;;;;8.75;2.88;;;;;;;;;;1027197;28;20027;-76
2022/08/26 01:49:01;;;;;;;8.48;2.00;;;;;;;;;;1028017;28;20450;-76
2022/08/26 01:49:33;;;;;;;8.68;2.83;;;;;;;;;;1027832;28;20632;-76
2022/08/26 01:50:06;;;;;;;6.60;2.05;;;;;;;;;;1028018;28;20027;-76
2022/08/26 01:50:37;;;;;;;8.02;1.80;;;;;;;;;;1026867;28;20023;-76
2022/08/26 01:51:09;;;;;;;4.30;1.48;;;;;;;;;;1027744;28;20023;-76
2022/08/26 01:51:40;;;;;;;5.13;2.50;;;;;;;;;;1027796;28;20022;-76
2022/08/26 01:52:13;;;;;;;9.80;2.20;;;;;;;;;;1024303;28;20059;-76
2022/08/26 01:52:45;;;;;;;10.77;2.47;;;;;;;;;;1026704;28;20031;-76
2022/08/26 01:53:17;;;;;;;8.82;1.92;;;;;;;;;;1027780;28;20023;-76
2022/08/26 01:53:48;;;;;;;10.30;2.28;;;;;;;;;;1027412;28;20019;-76
2022/08/26 01:54:18;;;;;;;6.32;2.08;;;;;;;;;;1027088;28;20031;-76
2022/08/26 01:54:50;;;;;;;10.63;2.08;;;;;;;;;;1027469;28;20586;-76
2022/08/26 01:55:21;;;;;;;9.45;2.70;;;;;;;;;;1022930;29;20554;-76
2022/08/26 01:55:54;;;;;;;18.42;1.70;;;;;;;;;;1023692;29;20027;-76
2022/08/26 01:56:25;;;;;;;4.75;2.03;;;;;;;;;;1021436;28;20039;-76
2022/08/26 01:56:57;;;;;;;8.68;2.13;;;;;;;;;;1027426;28;20030;-76
2022/08/26 01:57:28;;;;;;;6.18;1.92;;;;;;;;;;1021975;29;20023;-76
2022/08/26 01:58:00;;;;;;;5.35;1.77;;;;;;;;;;1023869;29;20023;-76
2022/08/26 01:58:37;;;;;;;5.28;2.17;;;;;;;;;;1023443;28;20085;-76
2022/08/26 01:59:09;;;;;;;5.38;1.77;;;;;;;;;;1027205;28;20363;-76
2022/08/26 01:59:40;;;;;;;10.52;2.13;;;;;;;;;;1027848;28;20027;-76
2022/08/26 02:00:14;;;;;;;48.55;5.28;;;;;;;;;;1027266;28;20031;-76
2022/08/26 02:00:44;;;;;;;26.52;2.63;;;;;;;;;;1026320;28;20472;-76
2022/08/26 02:01:15;;;;;;;16.35;3.03;;;;;;;;;;1027342;28;20031;-76
2022/08/26 02:01:48;;;;;;;20.80;4.65;;;;;;;;;;1027767;28;20380;-76
2022/08/26 02:02:18;;;;;;;18.15;2.50;;;;;;;;;;1027782;28;20042;-77
2022/08/26 02:03:15;;;;;;;21.90;3.90;;;;;;;;;;1023480;29;20426;-75
2022/08/26 02:04:04;;;;;;;32.60;3.53;;;;;;;;;;1026918;28;20125;-75
2022/08/26 02:04:38;;;;;;;29.20;3.55;;;;;;;;;;1015933;28;20041;-75
2022/08/26 02:05:10;;;;;;;14.23;2.85;;;;;;;;;;1027508;28;20033;-75
2022/08/26 02:05:42;;;;;;;5.53;1.77;;;;;;;;;;1028084;28;20033;-77
2022/08/26 02:06:13;;;;;;;6.32;1.17;;;;;;;;;;1026331;28;20022;-77
2022/08/26 02:06:43;;;;;;;31.77;4.47;;;;;;;;;;1027310;28;20122;-77
2022/08/26 02:07:15;;;;;;;31.88;3.38;;;;;;;;;;1026961;28;20018;-75
2022/08/26 02:07:47;;;;;;;88.70;6.93;;;;;;;;;;1027091;28;20450;-75
2022/08/26 02:08:18;;;;;;;30.98;4.00;;;;;;;;;;1027247;28;20019;-75
2022/08/26 02:08:51;;;;;;;23.25;3.03;;;;;;;;;;1027968;28;20030;-75
2022/08/26 02:09:22;;;;;;;12.75;3.05;;;;;;;;;;1027501;28;20125;-75
2022/08/26 02:09:53;;;;;;;3.03;1.70;;;;;;;;;;1027970;28;20061;-75
2022/08/26 02:10:24;;;;;;;7.18;2.10;;;;;;;;;;1026669;28;20037;-75
2022/08/26 02:10:55;;;;;;;5.93;1.60;;;;;;;;;;1025563;28;20446;-75
2022/08/26 02:11:25;;;;;;;8.75;2.40;;;;;;;;;;1026791;28;20129;-75
2022/08/26 02:11:58;;;;;;;7.80;1.70;;;;;;;;;;1028516;28;20074;-75
2022/08/26 02:12:29;;;;;;;5.93;1.48;;;;;;;;;;1027292;28;20434;-75
2022/08/26 02:13:00;;;;;;;7.88;1.77;;;;;;;;;;1028255;28;20019;-75
2022/08/26 02:13:31;;;;;;;5.88;1.50;;;;;;;;;;1027304;28;20070;-75
2022/08/26 02:14:08;;;;;;;7.55;1.33;;;;;;;;;;1023406;29;20031;-75
2022/08/26 02:14:41;;;;;;;5.75;1.58;;;;;;;;;;1015847;29;20056;-75
2022/08/26 02:15:12;;;;;;;4.63;1.85;;;;;;;;;;1014449;29;20124;-75
2022/08/26 02:15:43;;;;;;;10.48;1.88;;;;;;;;;;1021044;29;20590;-75
2022/08/26 02:16:18;;;;;;;18.92;4.13;;;;;;;;;;1019088;29;20039;-75
2022/08/26 02:16:50;;;;;;;8.38;4.88;;;;;;;;;;1022831;28;20116;-75
2022/08/26 02:17:23;;;;;;;9.10;4.00;;;;;;;;;;1024569;28;20026;-77
2022/08/26 02:17:54;;;;;;;16.75;4.10;;;;;;;;;;1022886;29;20031;-77
2022/08/26 02:18:26;;;;;;;12.25;4.78;;;;;;;;;;1026582;28;20392;-77
2022/08/26 02:18:58;;;;;;;7.95;4.00;;;;;;;;;;1024796;28;20058;-75
2022/08/26 02:19:31;;;;;;;9.48;5.57;;;;;;;;;;1023792;28;20034;-75
2022/08/26 02:20:02;;;;;;;15.50;6.90;;;;;;;;;;1026318;28;20093;-75
2022/08/26 02:20:33;;;;;;;13.23;6.15;;;;;;;;;;1025283;28;20063;-77
2022/08/26 02:21:04;;;;;;;11.10;5.55;;;;;;;;;;1027156;28;20088;-75
2022/08/26 02:21:34;;;;;;;9.27;6.43;;;;;;;;;;1025566;28;20479;-75
2022/08/26 02:22:06;;;;;;;17.70;3.25;;;;;;;;;;1025753;28;20027;-75
2022/08/26 02:22:37;;;;;;;9.85;2.55;;;;;;;;;;1027650;28;20019;-75
2022/08/26 02:23:08;;;;;;;13.07;2.33;;;;;;;;;;1026998;28;20027;-75
2022/08/26 02:23:38;;;;;;;5.97;2.30;;;;;;;;;;1027620;28;20113;-75
2022/08/26 02:24:14;;;;;;;6.95;2.22;;;;;;;;;;1025044;28;20042;-75
2022/08/26 02:24:46;;;;;;;9.10;2.58;;;;;;;;;;1026980;28;20023;-75
2022/08/26 02:25:38;;;;;;;7.35;2.45;;;;;;;;;;1025362;28;20034;-75
2022/08/26 02:26:08;;;;;;;11.65;2.58;;;;;;;;;;1027277;28;20109;-75
2022/08/26 02:26:39;;;;;;;4.20;2.42;;;;;;;;;;1027869;28;20490;-75
2022/08/26 02:27:10;;;;;;;12.88;2.45;;;;;;;;;;1025009;28;20099;-75
2022/08/26 02:27:40;;;;;;;7.00;2.35;;;;;;;;;;1027462;28;20058;-75
2022/08/26 02:28:11;;;;;;;19.88;2.85;;;;;;;;;;1024790;28;20530;-75
2022/08/26 02:28:45;;;;;;;3.83;1.88;;;;;;;;;;1026233;28;20034;-75
2022/08/26 02:29:36;;;;;;;8.80;2.45;;;;;;;;;;1025961;28;20588;-75
2022/08/26 02:30:13;;;;;;;26.67;4.00;;;;;;;;;;1025292;28;20027;-75
2022/08/26 02:30:44;;;;;;;26.30;5.68;;;;;;;;;;1026129;28;20499;-75
2022/08/26 02:31:14;;;;;;;19.65;4.00;;;;;;;;;;1026813;28;20038;-75
2022/08/26 02:31:47;;;;;;;17.25;5.93;;;;;;;;;;1027411;28;20601;-75
2022/08/26 02:32:17;;;;;;;22.50;7.50;;;;;;;;;;1026048;28;20419;-75
2022/08/26 02:32:48;;;;;;;61.80;6.65;;;;;;;;;;1028013;28;20065;-75
2022/08/26 02:33:19;;;;;;;12.25;4.03;;;;;;;;;;1026292;28;20031;-75
2022/08/26 02:33:49;;;;;;;8.77;3.50;;;;;;;;;;1026409;28;20031;-75
2022/08/26 02:34:24;;;;;;;37.00;4.75;;;;;;;;;;1025611;28;20038;-75
2022/08/26 02:34:55;;;;;;;44.13;6.25;;;;;;;;;;1026137;28;20023;-75
2022/08/26 02:35:25;;;;;;;183.52;16.73;;;;;;;;;;1026389;28;20027;-75
2022/08/26 02:35:56;;;;;;;65.40;5.82;;;;;;;;;;1026269;28;20030;-75
2022/08/26 02:36:27;;;;;;;17.25;4.57;;;;;;;;;;1027022;28;20023;-75
2022/08/26 02:37:04;;;;;;;6.47;2.25;;;;;;;;;;1026777;28;20088;-75
2022/08/26 02:37:35;;;;;;;5.13;2.30;;;;;;;;;;1027240;28;20049;-75
2022/08/26 02:38:07;;;;;;;9.00;2.30;;;;;;;;;;1021574;28;20024;-75
2022/08/26 02:38:37;;;;;;;18.17;2.75;;;;;;;;;;1020619;29;20162;-75
2022/08/26 02:39:09;;;;;;;8.35;2.00;;;;;;;;;;1021089;28;20023;-75
2022/08/26 02:39:40;;;;;;;8.20;2.03;;;;;;;;;;1024337;28;20037;-75
2022/08/26 02:40:12;;;;;;;14.18;2.53;;;;;;;;;;1026750;28;20018;-75
2022/08/26 02:40:43;;;;;;;12.13;1.83;;;;;;;;;;1027311;28;20462;-75
2022/08/26 02:41:13;;;;;;;18.98;3.00;;;;;;;;;;1026046;28;20461;-75
2022/08/26 02:41:44;;;;;;;2.38;1.15;;;;;;;;;;1026815;28;20023;-75
2022/08/26 02:42:15;;;;;;;11.25;2.30;;;;;;;;;;1026173;28;20435;-75
2022/08/26 02:42:45;;;;;;;9.57;2.25;;;;;;;;;;1026419;28;20042;-76
2022/08/26 02:43:16;;;;;;;15.25;2.78;;;;;;;;;;1025829;28;20438;-76
2022/08/26 02:43:47;;;;;;;15.02;1.85;;;;;;;;;;1026873;28;20030;-76
2022/08/26 02:44:18;;;;;;;9.18;2.28;;;;;;;;;;1026377;28;20038;-76
2022/08/26 02:44:48;;;;;;;13.38;2.72;;;;;;;;;;1026058;28;20031;-76
2022/08/26 02:45:19;;;;;;;14.18;2.53;;;;;;;;;;1025310;28;20109;-76
2022/08/26 02:45:50;;;;;;;4.93;2.15;;;;;;;;;;1027493;28;20029;-76
2022/08/26 02:46:21;;;;;;;16.67;4.00;;;;;;;;;;1026590;28;20422;-76
2022/08/26 02:46:51;;;;;;;13.88;2.92;;;;;;;;;;1027406;28;20117;-76
2022/08/26 02:47:24;;;;;;;5.65;2.40;;;;;;;;;;1026873;28;20126;-76
2022/08/26 02:47:56;;;;;;;9.90;3.00;;;;;;;;;;1026175;28;20058;-76
2022/08/26 02:48:27;;;;;;;11.38;1.77;;;;;;;;;;1027066;28;20026;-76
2022/08/26 02:48:57;;;;;;;6.55;1.60;;;;;;;;;;1029388;28;20634;-76
2022/08/26 02:49:29;;;;;;;17.00;2.17;;;;;;;;;;1023923;28;20035;-76
2022/08/26 02:49:59;;;;;;;10.00;1.55;;;;;;;;;;1025772;28;20077;-76
2022/08/26 02:50:30;;;;;;;12.38;1.80;;;;;;;;;;1026882;28;20030;-76
2022/08/26 02:51:01;;;;;;;16.15;2.33;;;;;;;;;;1025836;28;20040;-76
2022/08/26 02:51:33;;;;;;;44.88;5.70;;;;;;;;;;1027131;28;20054;-76
2022/08/26 02:52:03;;;;;;;11.77;2.80;;;;;;;;;;1027108;28;20046;-76
2022/08/26 02:52:34;;;;;;;13.35;4.18;;;;;;;;;;1027506;28;20542;-76
2022/08/26 02:53:05;;;;;;;8.57;2.80;;;;;;;;;;1025589;28;20031;-76
2022/08/26 02:53:35;;;;;;;63.08;8.48;;;;;;;;;;1027500;28;20023;-76
2022/08/26 02:54:06;;;;;;;15.27;3.05;;;;;;;;;;1026857;28;20034;-75
2022/08/26 02:54:37;;;;;;;26.10;3.15;;;;;;;;;;1027156;28;20078;-76
2022/08/26 02:55:08;;;;;;;19.40;3.65;;;;;;;;;;1025063;28;20031;-76
2022/08/26 02:55:40;;;;;;;34.88;4.47;;;;;;;;;;1027580;28;20466;-76
2022/08/26 02:56:11;;;;;;;10.45;3.00;;;;;;;;;;1025490;28;20086;-76
2022/08/26 02:56:42;;;;;;;13.30;2.10;;;;;;;;;;1026245;28;20424;-76
2022/08/26 02:57:13;;;;;;;3.55;1.23;;;;;;;;;;1025538;28;20034;-76
2022/08/26 02:57:43;;;;;;;4.97;1.30;;;;;;;;;;1025824;28;20082;-76
2022/08/26 02:58:15;;;;;;;10.27;3.35;;;;;;;;;;1027083;28;20113;-76
2022/08/26 02:58:45;;;;;;;12.88;3.63;;;;;;;;;;1027711;28;20403;-76
2022/08/26 02:59:16;;;;;;;15.30;2.55;;;;;;;;;;1025853;28;20039;-76
2022/08/26 02:59:47;;;;;;;4.07;2.13;;;;;;;;;;1026882;28;20384;-75
2022/08/26 03:00:17;;;;;;;10.48;3.08;;;;;;;;;;1027439;28;20090;-76
2022/08/26 03:00:48;;;;;;;6.18;3.10;;;;;;;;;;1024915;28;20039;-76
2022/08/26 03:01:23;;;;;;;22.90;3.42;;;;;;;;;;1026617;28;20030;-76
2022/08/26 03:01:54;;;;;;;13.75;2.50;;;;;;;;;;1025546;28;20039;-76
2022/08/26 03:02:25;;;;;;;14.07;3.97;;;;;;;;;;1025648;28;20510;-76
2022/08/26 03:02:56;;;;;;;3.58;2.22;;;;;;;;;;1024380;28;20129;-76
2022/08/26 03:03:27;;;;;;;9.10;1.77;;;;;;;;;;1024741;28;20035;-76
2022/08/26 03:03:58;;;;;;;10.80;1.73;;;;;;;;;;1024608;28;20118;-75
2022/08/26 03:04:29;;;;;;;8.68;2.75;;;;;;;;;;1024407;28;20060;-76
2022/08/26 03:05:00;;;;;;;37.97;6.95;;;;;;;;;;1021847;28;20268;-76
2022/08/26 03:05:31;;;;;;;14.73;2.80;;;;;;;;;;1023220;28;20023;-76
2022/08/26 03:06:01;;;;;;;7.03;2.22;;;;;;;;;;1026386;28;20031;-76
2022/08/26 03:06:32;;;;;;;7.25;2.22;;;;;;;;;;1025150;28;20035;-76
2022/08/26 03:07:03;;;;;;;11.98;2.65;;;;;;;;;;1026797;28;20022;-77
2022/08/26 03:07:33;;;;;;;7.38;2.15;;;;;;;;;;1027120;28;20039;-76
2022/08/26 03:08:04;;;;;;;13.13;2.30;;;;;;;;;;1025113;28;20122;-76
2022/08/26 03:08:34;;;;;;;17.52;4.82;;;;;;;;;;1027459;28;20027;-76
2022/08/26 03:09:06;;;;;;;10.70;3.22;;;;;;;;;;1024795;28;20492;-76
2022/08/26 03:09:36;;;;;;;7.20;2.50;;;;;;;;;;1027881;28;20026;-76
2022/08/26 03:10:07;;;;;;;15.90;3.65;;;;;;;;;;1026023;28;20547;-76